Time;durP1;ratioP1;P1;durP2;ratioP2;P2;SDS_P1;SDS_P2;PMS_P1;PMS_P2;Temp;Humidity;BMP_temperature;BMP_pressure;BME280_temperature;BME280_humidity;BME280_pressure;Samples;Min_cycle;Max_cycle;Signal;HPM_P1;HPM_P2
2023/01/28 00:02:06;;;;;;;13.33;9.40;;;0.20;99.90;;;;;;5054517;28;20178;-30
2023/01/28 00:04:31;;;;;;;16.57;9.83;;;0.30;99.90;;;;;;5036554;28;20295;-30
2023/01/28 00:06:57;;;;;;;12.87;8.70;;;0.30;99.90;;;;;;5037280;28;20309;-31
2023/01/28 00:09:23;;;;;;;14.23;9.50;;;0.30;99.90;;;;;;5056367;28;20176;-30
2023/01/28 00:11:50;;;;;;;15.13;9.27;;;0.30;99.90;;;;;;5056221;28;20174;-30
2023/01/28 00:14:16;;;;;;;13.03;9.37;;;0.40;99.90;;;;;;5039512;28;20223;-30
2023/01/28 00:16:42;;;;;;;15.77;9.67;;;0.40;99.90;;;;;;5056065;28;20212;-30
2023/01/28 00:19:08;;;;;;;14.73;10.13;;;0.40;99.90;;;;;;5039348;28;20620;-30
2023/01/28 00:21:34;;;;;;;13.60;9.40;;;0.40;99.90;;;;;;5056050;28;20181;-30
2023/01/28 00:24:00;;;;;;;13.23;8.87;;;0.40;99.90;;;;;;5055719;28;20184;-30
2023/01/28 00:26:26;;;;;;;12.90;9.20;;;0.40;99.90;;;;;;5056896;28;20192;-30
2023/01/28 00:28:51;;;;;;;15.03;10.10;;;0.30;99.90;;;;;;5058356;28;20199;-29
2023/01/28 00:31:23;;;;;;;14.53;10.07;;;0.30;99.90;;;;;;5067783;28;20335;-30
2023/01/28 00:33:50;;;;;;;13.67;9.20;;;0.30;99.90;;;;;;5054448;28;20222;-30
2023/01/28 00:36:17;;;;;;;14.03;8.97;;;0.30;99.90;;;;;;5055332;28;20168;-31
2023/01/28 00:38:47;;;;;;;15.13;9.30;;;0.30;99.90;;;;;;5073411;28;20209;-30
2023/01/28 00:41:15;;;;;;;13.20;9.43;;;0.30;99.90;;;;;;5055596;28;20177;-31
2023/01/28 00:43:43;;;;;;;12.83;8.80;;;0.30;99.90;;;;;;5039263;28;20237;-30
2023/01/28 00:46:10;;;;;;;12.53;8.87;;;0.30;99.90;;;;;;5055635;28;20249;-30
2023/01/28 00:48:37;;;;;;;12.80;9.37;;;0.30;99.90;;;;;;5055621;28;20817;-30
2023/01/28 00:51:05;;;;;;;13.77;8.63;;;0.30;99.90;;;;;;5055425;28;20187;-30
2023/01/28 00:53:33;;;;;;;14.07;9.33;;;0.30;99.90;;;;;;5055802;28;20670;-30
2023/01/28 00:55:59;;;;;;;14.53;9.53;;;0.30;99.90;;;;;;5054604;28;20632;-31
2023/01/28 00:58:25;;;;;;;14.03;9.17;;;0.30;99.90;;;;;;5044652;28;20208;-30
2023/01/28 01:00:51;;;;;;;12.80;8.60;;;0.40;99.90;;;;;;5047385;28;20703;-30
2023/01/28 01:03:18;;;;;;;13.67;8.60;;;0.30;99.90;;;;;;5053361;28;20211;-30
2023/01/28 01:05:45;;;;;;;14.77;9.13;;;0.40;99.90;;;;;;5024357;28;20402;-31
2023/01/28 01:08:11;;;;;;;14.13;9.00;;;0.30;99.90;;;;;;5055285;28;20192;-30
2023/01/28 01:10:38;;;;;;;13.60;8.70;;;0.40;99.90;;;;;;5055098;28;20211;-30
2023/01/28 01:13:06;;;;;;;15.07;9.10;;;0.40;99.90;;;;;;5038770;28;20176;-31
2023/01/28 01:15:34;;;;;;;13.77;8.40;;;0.40;99.90;;;;;;5034548;28;20207;-30
2023/01/28 01:18:02;;;;;;;14.27;8.87;;;0.40;99.90;;;;;;5018859;28;20203;-30
2023/01/28 01:20:32;;;;;;;14.73;9.50;;;0.40;99.90;;;;;;5054376;28;20185;-31
2023/01/28 01:22:58;;;;;;;13.60;8.97;;;0.40;99.90;;;;;;5054968;28;20227;-29
2023/01/28 01:25:25;;;;;;;13.17;9.03;;;0.40;99.90;;;;;;5038213;28;20208;-29
2023/01/28 01:27:51;;;;;;;12.83;8.90;;;0.40;99.90;;;;;;5072727;28;20200;-28
2023/01/28 01:30:17;;;;;;;13.80;8.80;;;0.40;99.90;;;;;;5064612;28;20179;-29
2023/01/28 01:32:43;;;;;;;14.17;8.83;;;0.50;99.90;;;;;;5053487;28;20536;-30
2023/01/28 01:35:09;;;;;;;13.30;8.90;;;0.40;99.90;;;;;;5033728;28;20180;-29
2023/01/28 01:37:36;;;;;;;14.10;9.40;;;0.40;99.90;;;;;;5032720;28;20391;-28
2023/01/28 01:40:03;;;;;;;13.70;9.00;;;0.40;99.90;;;;;;5053973;28;20184;-29
2023/01/28 01:42:33;;;;;;;13.93;8.87;;;0.40;99.90;;;;;;5036965;28;20183;-29
2023/01/28 01:45:02;;;;;;;13.00;8.17;;;0.30;99.90;;;;;;5054372;28;20204;-29
2023/01/28 01:47:47;;;;;;;13.57;8.43;;;0.30;99.90;;;;;;5037693;28;20239;-29
2023/01/28 01:50:31;;;;;;;15.03;8.90;;;0.30;99.90;;;;;;5034396;28;20264;-29
2023/01/28 01:53:02;;;;;;;11.87;8.00;;;0.40;99.90;;;;;;5034609;28;20176;-28
2023/01/28 01:55:33;;;;;;;14.00;8.87;;;0.30;99.90;;;;;;5024874;28;20203;-29
2023/01/28 01:58:04;;;;;;;13.57;8.10;;;0.30;99.90;;;;;;5045600;28;20219;-28
2023/01/28 02:00:30;;;;;;;12.83;8.57;;;0.30;99.90;;;;;;5067050;28;20191;-29
2023/01/28 02:02:57;;;;;;;11.97;8.07;;;0.30;99.90;;;;;;5054351;28;20172;-29
2023/01/28 02:05:24;;;;;;;14.23;9.10;;;0.30;99.90;;;;;;5036765;28;20212;-29
2023/01/28 02:07:54;;;;;;;12.50;8.37;;;0.30;99.90;;;;;;5053876;28;20285;-29
2023/01/28 02:10:21;;;;;;;12.77;8.03;;;0.30;99.90;;;;;;5053569;28;20205;-28
2023/01/28 02:12:59;;;;;;;14.73;8.80;;;0.40;99.90;;;;;;5037571;28;20190;-28
2023/01/28 02:15:26;;;;;;;11.83;7.93;;;0.40;99.90;;;;;;5068567;28;20193;-28
2023/01/28 02:17:52;;;;;;;13.97;8.97;;;0.30;99.90;;;;;;5037454;28;20207;-29
2023/01/28 02:20:23;;;;;;;14.40;9.07;;;0.40;99.90;;;;;;5053318;28;20184;-27
2023/01/28 02:23:09;;;;;;;10.93;7.70;;;0.30;99.90;;;;;;5053872;28;20243;-29
2023/01/28 02:26:00;;;;;;;14.13;9.50;;;0.30;99.90;;;;;;5052596;28;20254;-29
2023/01/28 02:28:51;;;;;;;12.60;8.10;;;0.30;99.90;;;;;;5061931;28;20232;-29
2023/01/28 02:31:33;;;;;;;13.00;8.10;;;0.40;99.90;;;;;;5033730;28;20177;-28
2023/01/28 02:34:10;;;;;;;12.67;7.97;;;0.30;99.90;;;;;;5033590;28;20183;-29
2023/01/28 02:36:41;;;;;;;12.50;7.37;;;0.40;99.90;;;;;;5053827;28;20193;-28
2023/01/28 02:39:22;;;;;;;11.67;8.27;;;0.40;99.90;;;;;;5052790;28;20203;-29
2023/01/28 02:42:16;;;;;;;12.13;7.70;;;0.40;99.90;;;;;;5037157;28;20180;-28
2023/01/28 02:44:42;;;;;;;11.77;7.80;;;0.40;99.90;;;;;;5053351;28;20231;-29
2023/01/28 02:50:18;;;;;;;11.57;7.77;;;0.40;99.90;;;;;;5052938;28;20176;-29
2023/01/28 02:56:00;;;;;;;11.30;7.70;;;0.40;99.90;;;;;;5044980;28;20188;-29
2023/01/28 02:59:29;;;;;;;12.03;7.57;;;0.40;99.90;;;;;;5044417;28;20215;-28
2023/01/28 03:01:57;;;;;;;12.47;8.10;;;0.40;99.90;;;;;;5053198;28;20211;-28
2023/01/28 03:04:32;;;;;;;11.17;7.57;;;0.40;99.90;;;;;;5052984;28;20208;-28
2023/01/28 03:07:05;;;;;;;12.37;7.73;;;0.40;99.90;;;;;;5053313;28;20180;-29
2023/01/28 03:09:32;;;;;;;10.37;7.17;;;0.40;99.90;;;;;;5032964;28;20241;-28
2023/01/28 03:37:14;;;;;;;11.60;7.87;;;0.40;99.90;;;;;;5054601;28;20207;-29
2023/01/28 03:39:48;;;;;;;12.60;8.17;;;0.40;99.90;;;;;;5036692;28;20180;-29
2023/01/28 03:42:15;;;;;;;11.43;7.93;;;0.30;99.90;;;;;;5053472;28;20202;-30
2023/01/28 03:44:54;;;;;;;12.63;8.20;;;0.30;99.90;;;;;;5056410;28;20235;-30
2023/01/28 03:47:23;;;;;;;12.53;8.27;;;0.40;99.90;;;;;;5056979;28;20223;-30
2023/01/28 03:49:51;;;;;;;14.63;7.90;;;0.40;99.90;;;;;;5074608;28;20173;-29
2023/01/28 03:52:26;;;;;;;11.20;7.50;;;0.30;99.90;;;;;;5040513;28;20238;-29
2023/01/28 03:55:03;;;;;;;11.70;7.87;;;0.30;99.90;;;;;;5056122;28;20253;-30
2023/01/28 03:57:30;;;;;;;11.77;7.87;;;0.40;99.90;;;;;;5040937;28;20342;-29
2023/01/28 03:59:56;;;;;;;11.23;7.57;;;0.40;99.90;;;;;;5073326;28;20189;-29
2023/01/28 04:02:22;;;;;;;10.80;7.40;;;0.40;99.90;;;;;;5063141;28;20180;-29
2023/01/28 04:04:50;;;;;;;11.40;7.53;;;0.40;99.90;;;;;;5040112;28;20208;-29
2023/01/28 04:07:17;;;;;;;11.23;7.40;;;0.40;99.90;;;;;;5036062;28;20644;-30
2023/01/28 04:10:01;;;;;;;10.97;7.77;;;0.40;99.90;;;;;;5067839;28;20196;-29
2023/01/28 04:12:40;;;;;;;14.23;7.77;;;0.40;99.90;;;;;;5056453;28;20200;-30
2023/01/28 04:15:14;;;;;;;11.33;7.80;;;0.40;99.90;;;;;;5056307;28;20191;-30
2023/01/28 04:17:46;;;;;;;11.23;7.33;;;0.40;99.90;;;;;;5056194;28;20200;-30
2023/01/28 04:20:17;;;;;;;11.67;8.23;;;0.50;99.90;;;;;;5039986;28;20265;-30
2023/01/28 04:22:43;;;;;;;11.90;7.37;;;0.50;99.90;;;;;;5039638;28;20247;-29
2023/01/28 04:25:11;;;;;;;10.80;7.67;;;0.50;99.90;;;;;;5039084;28;20227;-29
2023/01/28 04:27:36;;;;;;;10.27;7.23;;;0.50;99.90;;;;;;5055226;28;20206;-29
2023/01/28 04:30:14;;;;;;;10.07;6.80;;;0.40;99.90;;;;;;5055332;28;20179;-29
2023/01/28 04:32:51;;;;;;;12.77;8.57;;;0.40;99.90;;;;;;5055911;28;20255;-30
2023/01/28 04:35:34;;;;;;;11.63;7.90;;;0.50;99.90;;;;;;5055757;28;20198;-30
2023/01/28 04:38:08;;;;;;;10.23;7.23;;;0.50;99.90;;;;;;5056052;28;20210;-30
2023/01/28 04:40:43;;;;;;;12.07;7.67;;;0.50;99.90;;;;;;5054863;28;20260;-29
2023/01/28 04:43:14;;;;;;;11.47;7.33;;;0.50;99.90;;;;;;5055803;28;20185;-29
2023/01/28 04:45:52;;;;;;;10.50;7.33;;;0.50;99.90;;;;;;5040476;28;20208;-29
2023/01/28 04:48:30;;;;;;;11.97;7.77;;;0.60;99.90;;;;;;5056670;28;20219;-29
2023/01/28 04:51:23;;;;;;;11.00;7.27;;;0.60;99.90;;;;;;5056538;28;20180;-29
2023/01/28 04:54:07;;;;;;;10.37;7.13;;;0.60;99.90;;;;;;5058771;28;20237;-29
2023/01/28 04:56:34;;;;;;;12.33;7.57;;;0.50;99.90;;;;;;5062315;28;20184;-29
2023/01/28 04:59:01;;;;;;;11.53;7.00;;;0.50;99.90;;;;;;5064741;28;20238;-29
2023/01/28 05:01:28;;;;;;;12.00;7.37;;;0.60;99.90;;;;;;5055074;28;20183;-29
2023/01/28 05:03:54;;;;;;;11.10;7.03;;;0.50;99.90;;;;;;5038615;28;20199;-29
2023/01/28 05:06:24;;;;;;;11.17;7.27;;;0.60;99.90;;;;;;5055284;28;20187;-29
2023/01/28 05:08:53;;;;;;;13.50;7.83;;;0.60;99.90;;;;;;5055053;28;20573;-30
2023/01/28 05:11:19;;;;;;;10.67;7.20;;;0.60;99.90;;;;;;5038259;28;20180;-30
2023/01/28 05:13:49;;;;;;;12.10;8.00;;;0.60;99.90;;;;;;5034942;28;20179;-29
2023/01/28 05:16:17;;;;;;;9.83;7.50;;;0.60;99.90;;;;;;5051764;28;20188;-29
2023/01/28 05:18:43;;;;;;;11.23;7.50;;;0.60;99.90;;;;;;5037882;28;20202;-29
2023/01/28 05:21:14;;;;;;;10.73;7.03;;;0.60;99.90;;;;;;5055293;28;20215;-29
2023/01/28 05:23:42;;;;;;;11.67;7.87;;;0.60;99.90;;;;;;5038333;28;20184;-29
2023/01/28 05:26:08;;;;;;;10.73;7.53;;;0.60;99.90;;;;;;5038091;28;20206;-30
2023/01/28 05:28:34;;;;;;;12.63;8.00;;;0.60;99.90;;;;;;5062608;28;20229;-29
2023/01/28 05:31:05;;;;;;;10.63;7.33;;;0.60;99.90;;;;;;5054847;28;20176;-30
2023/01/28 05:33:31;;;;;;;10.97;7.67;;;0.60;99.90;;;;;;5038166;28;20193;-30
2023/01/28 05:35:58;;;;;;;12.33;7.77;;;0.60;99.90;;;;;;5054646;28;20204;-30
2023/01/28 05:38:24;;;;;;;12.40;8.23;;;0.50;99.90;;;;;;5054789;28;20208;-30
2023/01/28 05:40:50;;;;;;;11.63;8.23;;;0.60;99.90;;;;;;5037865;28;20181;-28
2023/01/28 05:43:16;;;;;;;11.97;7.63;;;0.60;99.90;;;;;;5054517;28;20214;-29
2023/01/28 05:46:06;;;;;;;11.00;8.10;;;0.60;99.90;;;;;;5057030;28;20274;-30
2023/01/28 05:49:12;;;;;;;12.63;8.50;;;0.50;99.90;;;;;;4990201;28;20215;-30
2023/01/28 05:51:57;;;;;;;11.83;7.07;;;0.50;99.90;;;;;;5031294;28;20197;-30
2023/01/28 05:54:24;;;;;;;12.10;8.10;;;0.50;99.90;;;;;;5037609;28;20200;-29
2023/01/28 05:56:50;;;;;;;11.30;7.83;;;0.60;99.90;;;;;;5072447;28;20324;-30
2023/01/28 06:02:00;;;;;;;8.77;6.93;;;0.50;99.90;;;;;;5097798;23;20253;-37
2023/01/28 06:04:25;;;;;;;12.70;8.23;;;0.50;99.90;;;;;;5044416;28;20209;-37
2023/01/28 06:06:51;;;;;;;12.80;8.07;;;0.60;99.90;;;;;;5034755;28;20180;-37
2023/01/28 06:09:19;;;;;;;13.23;8.30;;;0.60;99.90;;;;;;5025426;28;20196;-39
2023/01/28 06:11:45;;;;;;;12.37;7.93;;;0.60;99.90;;;;;;5011194;28;20182;-40
2023/01/28 06:14:12;;;;;;;12.67;7.90;;;0.60;99.90;;;;;;5017770;28;20181;-41
2023/01/28 06:16:51;;;;;;;11.63;8.00;;;0.60;99.90;;;;;;5031114;28;20283;-38
2023/01/28 06:19:40;;;;;;;11.60;8.00;;;0.60;99.90;;;;;;5007906;28;20183;-39
2023/01/28 06:22:07;;;;;;;12.70;8.33;;;0.60;99.90;;;;;;5011145;28;20185;-38
2023/01/28 06:24:32;;;;;;;11.30;8.20;;;0.60;99.90;;;;;;5019192;28;20201;-43
2023/01/28 06:26:58;;;;;;;9.97;7.20;;;0.50;99.90;;;;;;5023170;28;20181;-39
2023/01/28 06:29:24;;;;;;;10.80;7.63;;;0.60;99.90;;;;;;5010709;28;20255;-39
2023/01/28 06:31:50;;;;;;;13.17;7.83;;;0.60;99.90;;;;;;5012827;28;20200;-37
2023/01/28 06:34:16;;;;;;;11.30;8.10;;;0.60;99.90;;;;;;5024814;28;20184;-37
2023/01/28 06:36:43;;;;;;;14.17;8.23;;;0.60;99.90;;;;;;5038056;28;20186;-38
2023/01/28 06:39:09;;;;;;;13.07;8.47;;;0.60;99.90;;;;;;5030600;28;20197;-37
2023/01/28 06:41:35;;;;;;;10.93;8.10;;;0.60;99.90;;;;;;5030316;28;20207;-38
2023/01/28 06:44:01;;;;;;;11.17;8.10;;;0.60;99.90;;;;;;5029860;28;20193;-37
2023/01/28 06:46:27;;;;;;;12.20;7.33;;;0.60;99.90;;;;;;5031373;28;20197;-37
2023/01/28 06:48:53;;;;;;;12.07;8.10;;;0.50;99.90;;;;;;5012553;28;20208;-37
2023/01/28 06:51:20;;;;;;;11.47;7.70;;;0.60;99.90;;;;;;5011483;28;20193;-37
2023/01/28 06:53:46;;;;;;;10.73;7.30;;;0.60;99.90;;;;;;5011214;28;20186;-37
2023/01/28 06:56:12;;;;;;;9.93;7.10;;;0.60;99.90;;;;;;5025959;28;20176;-37
2023/01/28 06:58:37;;;;;;;12.90;8.57;;;0.60;99.90;;;;;;5013815;28;20248;-38
2023/01/28 07:01:03;;;;;;;11.87;8.00;;;0.60;99.90;;;;;;5011747;28;20195;-37
2023/01/28 07:03:29;;;;;;;11.20;8.03;;;0.60;99.90;;;;;;5013242;28;20211;-37
2023/01/28 07:05:55;;;;;;;10.90;8.17;;;0.60;99.90;;;;;;5028832;28;20217;-37
2023/01/28 07:08:21;;;;;;;9.87;7.63;;;0.60;99.90;;;;;;5009233;28;20221;-38
2023/01/28 07:10:48;;;;;;;11.37;7.60;;;0.60;99.90;;;;;;5008692;28;20181;-37
2023/01/28 07:13:14;;;;;;;11.20;7.97;;;0.50;99.90;;;;;;5028051;28;20177;-37
2023/01/28 07:15:40;;;;;;;12.77;7.77;;;0.50;99.90;;;;;;5007939;28;20196;-37
2023/01/28 07:18:06;;;;;;;12.03;9.23;;;0.50;99.90;;;;;;5009926;28;20203;-37
2023/01/28 07:20:32;;;;;;;14.40;9.47;;;0.50;99.90;;;;;;4994110;28;20186;-38
2023/01/28 07:22:58;;;;;;;12.70;9.03;;;0.50;99.90;;;;;;5023213;28;20197;-37
2023/01/28 07:25:24;;;;;;;11.83;8.23;;;0.50;99.90;;;;;;5010662;28;20692;-37
2023/01/28 07:27:51;;;;;;;11.80;8.13;;;0.50;99.90;;;;;;5022459;28;20199;-38
2023/01/28 07:30:19;;;;;;;10.97;7.50;;;0.50;99.90;;;;;;5013647;28;20184;-38
2023/01/28 07:32:46;;;;;;;12.43;7.93;;;0.50;99.90;;;;;;5031168;28;20168;-38
2023/01/28 07:35:12;;;;;;;12.53;7.83;;;0.60;99.90;;;;;;5013006;28;20184;-38
2023/01/28 07:37:38;;;;;;;11.13;7.67;;;0.60;99.90;;;;;;5013680;28;20203;-38
2023/01/28 07:40:05;;;;;;;10.77;7.67;;;0.60;99.90;;;;;;5030988;28;20724;-38
2023/01/28 07:42:31;;;;;;;12.63;8.37;;;0.70;99.90;;;;;;5030941;28;20194;-38
2023/01/28 07:45:03;;;;;;;12.63;8.10;;;0.70;99.90;;;;;;5013604;28;20312;-39
2023/01/28 07:47:29;;;;;;;10.93;7.70;;;0.70;99.90;;;;;;5030741;28;20181;-38
2023/01/28 07:49:55;;;;;;;11.10;7.73;;;0.70;99.90;;;;;;5029590;28;20250;-38
2023/01/28 07:52:21;;;;;;;12.43;7.70;;;0.70;99.90;;;;;;5025471;28;20204;-37
2023/01/28 07:54:46;;;;;;;12.00;8.30;;;0.80;99.90;;;;;;5012626;28;20186;-38
2023/01/28 07:57:12;;;;;;;10.27;7.80;;;0.80;99.90;;;;;;5031483;28;20208;-38
2023/01/28 07:59:38;;;;;;;11.40;8.20;;;0.80;99.90;;;;;;5028362;28;20192;-38
2023/01/28 08:02:05;;;;;;;11.30;8.47;;;0.80;99.90;;;;;;5029261;28;20591;-38
2023/01/28 08:04:31;;;;;;;11.93;8.07;;;0.80;99.90;;;;;;5028994;28;20236;-38
2023/01/28 08:06:56;;;;;;;13.73;8.20;;;0.90;99.90;;;;;;5010311;28;20666;-37
2023/01/28 08:09:22;;;;;;;10.93;7.60;;;0.90;99.90;;;;;;5011189;28;20210;-38
2023/01/28 08:11:48;;;;;;;10.63;7.77;;;0.90;99.90;;;;;;5011426;28;20213;-39
2023/01/28 08:14:14;;;;;;;10.30;7.20;;;0.90;99.90;;;;;;5009555;28;20182;-37
2023/01/28 08:16:40;;;;;;;11.93;8.47;;;0.90;99.90;;;;;;5026796;28;20258;-41
2023/01/28 08:19:06;;;;;;;10.43;7.90;;;1.00;99.90;;;;;;4999601;28;20207;-40
2023/01/28 08:21:35;;;;;;;11.27;7.90;;;1.00;99.90;;;;;;5025372;28;20181;-41
2023/01/28 08:24:01;;;;;;;11.20;8.20;;;1.00;99.90;;;;;;5024865;28;20181;-38
2023/01/28 08:26:27;;;;;;;10.27;7.57;;;1.00;99.90;;;;;;5016380;28;20206;-37
2023/01/28 08:28:56;;;;;;;11.20;8.30;;;1.00;99.90;;;;;;5032989;28;20651;-38
2023/01/28 08:31:21;;;;;;;11.60;8.17;;;1.00;99.90;;;;;;5032616;28;20697;-36
2023/01/28 08:33:47;;;;;;;10.97;7.73;;;1.00;99.90;;;;;;5028967;28;20193;-37
2023/01/28 08:36:14;;;;;;;11.27;7.23;;;1.10;99.90;;;;;;5017029;28;20185;-38
2023/01/28 08:38:40;;;;;;;10.97;7.90;;;1.10;99.90;;;;;;5032446;28;20207;-36
2023/01/28 08:41:06;;;;;;;11.30;8.47;;;1.10;99.90;;;;;;5033737;28;20181;-38
2023/01/28 08:43:31;;;;;;;11.53;8.27;;;1.10;99.90;;;;;;5015456;28;20193;-37
2023/01/28 08:46:00;;;;;;;11.03;7.47;;;1.10;99.90;;;;;;5023805;28;20217;-38
2023/01/28 08:48:26;;;;;;;10.83;7.70;;;1.20;99.90;;;;;;5031022;28;20214;-40
2023/01/28 08:50:52;;;;;;;11.93;8.70;;;1.20;99.90;;;;;;5032214;28;20185;-38
2023/01/28 08:53:19;;;;;;;11.03;7.90;;;1.20;99.90;;;;;;5031776;28;20311;-38
2023/01/28 08:55:46;;;;;;;12.57;8.17;;;1.20;99.90;;;;;;5015504;28;20184;-37
2023/01/28 08:58:14;;;;;;;10.97;8.00;;;1.30;99.90;;;;;;5032923;28;20197;-39
2023/01/28 09:00:41;;;;;;;11.77;7.73;;;1.30;99.90;;;;;;5031810;28;20201;-37
2023/01/28 09:03:08;;;;;;;13.30;9.23;;;1.30;99.90;;;;;;5027364;28;20193;-38
2023/01/28 09:05:36;;;;;;;10.57;7.60;;;1.40;99.90;;;;;;5031522;28;20210;-37
2023/01/28 09:08:10;;;;;;;10.53;7.93;;;1.40;99.90;;;;;;5015853;28;20198;-37
2023/01/28 09:10:37;;;;;;;10.90;7.63;;;1.40;99.90;;;;;;5028430;28;20183;-38
2023/01/28 09:13:06;;;;;;;10.60;7.33;;;1.40;99.90;;;;;;5015447;28;20186;-36
2023/01/28 09:15:33;;;;;;;12.47;8.10;;;1.50;99.90;;;;;;5015730;28;20304;-39
2023/01/28 09:17:58;;;;;;;10.93;7.73;;;1.40;99.90;;;;;;5012479;28;20220;-37
2023/01/28 09:20:28;;;;;;;10.33;7.23;;;1.50;99.90;;;;;;5029735;28;20201;-37
2023/01/28 09:22:57;;;;;;;11.03;7.80;;;1.50;99.90;;;;;;5033843;28;20190;-39
2023/01/28 09:25:23;;;;;;;9.77;7.30;;;1.50;99.90;;;;;;5011867;28;20228;-37
2023/01/28 09:27:49;;;;;;;9.90;7.17;;;1.50;99.90;;;;;;5026537;28;20242;-38
2023/01/28 09:30:15;;;;;;;12.33;8.00;;;1.50;99.90;;;;;;5030436;28;20264;-38
2023/01/28 09:32:41;;;;;;;10.07;7.70;;;1.50;99.90;;;;;;5029550;28;20177;-39
2023/01/28 09:35:10;;;;;;;10.27;7.47;;;1.50;99.90;;;;;;5027254;28;20274;-37
2023/01/28 09:37:36;;;;;;;10.37;7.10;;;1.50;99.90;;;;;;5011530;28;20202;-37
2023/01/28 09:40:03;;;;;;;9.27;6.47;;;1.60;99.90;;;;;;5022301;28;20180;-37
2023/01/28 09:42:31;;;;;;;10.13;7.33;;;1.60;99.90;;;;;;5030332;28;20228;-36
2023/01/28 09:45:48;;;;;;;12.23;8.30;;;1.70;99.90;;;;;;5028460;28;20210;-40
2023/01/28 09:48:20;;;;;;;11.07;7.27;;;1.70;99.90;;;;;;5009635;28;20234;-40
2023/01/28 09:50:52;;;;;;;13.07;8.40;;;1.70;99.90;;;;;;5010624;28;20178;-41
2023/01/28 09:53:36;;;;;;;10.37;7.83;;;1.70;99.90;;;;;;5019514;28;20258;-37
2023/01/28 09:56:05;;;;;;;12.13;7.93;;;1.80;99.90;;;;;;5023776;28;20255;-38
2023/01/28 09:58:31;;;;;;;11.77;7.77;;;1.80;99.90;;;;;;5022588;28;20205;-37
2023/01/28 10:01:03;;;;;;;10.93;8.03;;;1.80;99.90;;;;;;5018698;28;20214;-36
2023/01/28 10:03:47;;;;;;;12.57;9.70;;;1.90;99.90;;;;;;5015888;28;20176;-39
2023/01/28 10:06:35;;;;;;;11.17;8.17;;;1.90;99.90;;;;;;5019776;28;20254;-38
2023/01/28 10:09:45;;;;;;;12.07;8.07;;;1.90;99.90;;;;;;5021176;28;20238;-38
2023/01/28 10:12:11;;;;;;;9.60;7.17;;;1.90;99.90;;;;;;4996442;28;20395;-40
2023/01/28 10:15:14;;;;;;;11.97;8.07;;;2.00;99.90;;;;;;5019873;28;20185;-37
2023/01/28 10:17:43;;;;;;;10.77;7.47;;;2.00;99.90;;;;;;5013429;28;20211;-36
2023/01/28 10:20:15;;;;;;;12.23;8.10;;;1.90;99.90;;;;;;5025697;28;20187;-40
2023/01/28 10:22:45;;;;;;;11.47;7.57;;;2.00;99.90;;;;;;5017472;28;20181;-37
2023/01/28 10:25:19;;;;;;;9.73;7.27;;;2.00;99.90;;;;;;5021507;28;20260;-36
2023/01/28 10:27:48;;;;;;;10.30;7.17;;;2.10;99.90;;;;;;5021428;28;20211;-36
2023/01/28 10:30:21;;;;;;;10.37;7.00;;;2.10;99.90;;;;;;5022967;28;20302;-39
2023/01/28 10:33:16;;;;;;;12.30;7.70;;;2.20;99.90;;;;;;5019389;28;20183;-36
2023/01/28 10:35:42;;;;;;;11.40;7.90;;;2.30;99.90;;;;;;4998026;28;20190;-36
2023/01/28 10:38:14;;;;;;;10.33;7.03;;;2.40;99.90;;;;;;5012916;28;20195;-36
2023/01/28 10:40:46;;;;;;;10.03;7.23;;;2.50;99.90;;;;;;5010829;28;20178;-36
2023/01/28 10:43:16;;;;;;;9.83;6.73;;;2.60;99.90;;;;;;5016597;28;20259;-36
2023/01/28 10:45:55;;;;;;;9.63;7.07;;;2.60;99.90;;;;;;5027610;28;20213;-36
2023/01/28 10:48:43;;;;;;;8.90;6.37;;;2.70;99.90;;;;;;5025789;28;20210;-36
2023/01/28 10:51:09;;;;;;;9.93;6.83;;;2.70;99.90;;;;;;5029766;28;20179;-36
2023/01/28 10:53:39;;;;;;;8.90;6.87;;;2.80;99.90;;;;;;5029665;28;20171;-37
2023/01/28 10:56:08;;;;;;;9.03;6.33;;;2.80;99.90;;;;;;5027497;28;20186;-38
2023/01/28 10:58:58;;;;;;;9.13;6.80;;;2.80;99.90;;;;;;5013545;28;20206;-36
2023/01/28 11:01:57;;;;;;;8.50;6.10;;;2.80;99.90;;;;;;5021672;28;20202;-38
2023/01/28 11:04:29;;;;;;;8.70;6.40;;;2.80;99.90;;;;;;5025624;28;20193;-36
2023/01/28 11:07:05;;;;;;;9.17;6.70;;;2.80;99.90;;;;;;5010535;28;20214;-37
2023/01/28 11:09:36;;;;;;;8.97;6.37;;;2.90;99.90;;;;;;5005168;28;20198;-36
2023/01/28 11:12:25;;;;;;;9.00;7.00;;;2.90;99.90;;;;;;5027019;28;20179;-36
2023/01/28 11:14:56;;;;;;;10.63;6.93;;;2.90;99.90;;;;;;5022990;28;20190;-38
2023/01/28 11:17:29;;;;;;;10.10;6.63;;;2.90;99.90;;;;;;5025233;28;20190;-36
2023/01/28 11:19:59;;;;;;;9.00;6.40;;;2.90;99.90;;;;;;5024382;28;20262;-36
2023/01/28 11:22:36;;;;;;;9.93;6.87;;;2.90;99.90;;;;;;5021145;28;20187;-36
2023/01/28 11:25:13;;;;;;;9.87;6.60;;;2.90;99.90;;;;;;5022697;28;20260;-36
2023/01/28 11:27:39;;;;;;;9.77;6.40;;;2.80;99.90;;;;;;5036071;28;20202;-37
2023/01/28 11:30:19;;;;;;;8.30;6.07;;;2.90;99.90;;;;;;5027808;28;20266;-36
2023/01/28 11:32:45;;;;;;;9.17;6.20;;;2.90;99.90;;;;;;5020065;28;20182;-38
2023/01/28 11:35:24;;;;;;;10.47;7.00;;;2.90;99.90;;;;;;5012334;28;20190;-36
2023/01/28 11:37:51;;;;;;;9.37;6.60;;;3.00;99.90;;;;;;5022240;28;20206;-43
2023/01/28 11:40:21;;;;;;;10.27;6.80;;;3.00;99.90;;;;;;5029969;28;20190;-36
2023/01/28 11:42:51;;;;;;;9.60;6.53;;;3.00;99.90;;;;;;5013299;28;20186;-36
2023/01/28 11:45:24;;;;;;;8.93;6.57;;;3.00;99.90;;;;;;5013154;28;20202;-36
2023/01/28 11:48:06;;;;;;;8.77;6.57;;;2.90;99.90;;;;;;5020490;28;20290;-38
2023/01/28 11:50:37;;;;;;;9.40;6.50;;;2.90;99.90;;;;;;5022760;28;20179;-37
2023/01/28 11:53:45;;;;;;;9.10;6.47;;;2.80;99.90;;;;;;5009337;28;20183;-39
2023/01/28 11:56:33;;;;;;;7.80;5.70;;;2.90;99.90;;;;;;5029558;28;20179;-36
2023/01/28 11:59:18;;;;;;;9.90;6.07;;;2.90;99.90;;;;;;5004518;28;20206;-37
2023/01/28 12:01:59;;;;;;;11.30;6.87;;;3.00;99.90;;;;;;5056295;23;20228;-31
2023/01/28 12:05:19;;;;;;;12.10;7.93;;;2.90;99.90;;;;;;5053960;28;20193;-42
2023/01/28 12:08:46;;;;;;;10.33;7.00;;;2.90;99.90;;;;;;4991522;28;20242;-42
2023/01/28 12:14:27;;;;;;;12.43;7.90;;;2.70;99.90;;;;;;5025615;28;20178;-42
2023/01/28 12:17:05;;;;;;;13.30;8.43;;;2.70;99.90;;;;;;5021623;28;20186;-41
2023/01/28 12:20:00;;;;;;;12.87;8.37;;;2.70;99.90;;;;;;5022928;28;20592;-42
2023/01/28 12:22:35;;;;;;;11.00;7.80;;;2.60;99.90;;;;;;5023693;28;20187;-42
2023/01/28 12:25:01;;;;;;;13.00;8.87;;;2.60;99.90;;;;;;5027683;28;20214;-42
2023/01/28 12:27:35;;;;;;;11.03;7.87;;;2.50;99.90;;;;;;5032871;28;20696;-43
2023/01/28 12:30:20;;;;;;;12.03;8.87;;;2.60;99.90;;;;;;5030671;28;20166;-39
2023/01/28 12:33:21;;;;;;;11.13;7.50;;;2.50;99.90;;;;;;5027684;28;20178;-42
2023/01/28 12:35:49;;;;;;;13.00;9.00;;;2.50;99.90;;;;;;5025472;28;20181;-42
2023/01/28 12:38:43;;;;;;;11.07;8.23;;;2.50;99.90;;;;;;5042083;28;20202;-42
2023/01/28 12:41:19;;;;;;;12.40;7.93;;;2.50;99.90;;;;;;5044627;28;20206;-41
2023/01/28 12:44:24;;;;;;;11.37;7.87;;;2.40;99.90;;;;;;5031424;28;20202;-43
2023/01/28 12:46:58;;;;;;;13.63;8.07;;;2.40;99.90;;;;;;5009048;28;20214;-42
2023/01/28 12:49:27;;;;;;;13.10;7.93;;;2.40;99.90;;;;;;5031822;28;20184;-41
2023/01/28 12:52:02;;;;;;;11.10;7.57;;;2.40;99.90;;;;;;5032437;28;20209;-42
2023/01/28 12:54:34;;;;;;;13.37;8.23;;;2.40;99.90;;;;;;5032216;28;20178;-42
2023/01/28 12:57:01;;;;;;;11.67;8.23;;;2.40;99.90;;;;;;5015307;28;20179;-42
2023/01/28 12:59:50;;;;;;;11.70;8.27;;;2.40;99.90;;;;;;5027010;28;20176;-42
2023/01/28 13:02:23;;;;;;;13.30;9.40;;;2.40;99.90;;;;;;5026878;28;20194;-40
2023/01/28 13:05:17;;;;;;;12.17;8.53;;;2.30;99.90;;;;;;5021808;28;20195;-42
2023/01/28 13:08:06;;;;;;;15.83;10.10;;;2.30;99.90;;;;;;5030817;28;20189;-41
2023/01/28 13:10:43;;;;;;;17.00;8.83;;;2.30;99.90;;;;;;5029108;28;20206;-43
2023/01/28 13:13:37;;;;;;;13.40;9.00;;;2.30;99.90;;;;;;5032572;28;20185;-42
2023/01/28 13:16:07;;;;;;;11.70;8.43;;;2.40;99.90;;;;;;5030255;28;20301;-42
2023/01/28 13:18:39;;;;;;;12.83;8.73;;;2.40;99.90;;;;;;5023537;28;20190;-43
2023/01/28 13:21:06;;;;;;;14.53;9.20;;;2.30;99.90;;;;;;5022417;28;20211;-42
2023/01/28 13:23:38;;;;;;;12.07;8.57;;;2.30;99.90;;;;;;5025488;28;20190;-42
2023/01/28 13:26:46;;;;;;;14.07;9.20;;;2.30;99.90;;;;;;5023057;28;20273;-41
2023/01/28 13:29:25;;;;;;;12.03;8.50;;;2.30;99.90;;;;;;5017044;28;20187;-42
2023/01/28 13:31:57;;;;;;;15.67;9.57;;;2.30;99.90;;;;;;5023986;28;20250;-42
2023/01/28 13:34:56;;;;;;;12.93;8.90;;;2.30;99.90;;;;;;5027636;28;20183;-42
2023/01/28 16:24:25;;;;;;;10.17;6.80;;;1.80;99.90;;;;;;5019069;28;20217;-42
2023/01/28 16:27:03;;;;;;;13.00;9.17;;;1.80;99.90;;;;;;5033120;28;20206;-43
2023/01/28 16:29:30;;;;;;;11.57;7.70;;;1.80;99.90;;;;;;5000067;28;20193;-42
2023/01/28 16:31:59;;;;;;;12.97;8.73;;;1.80;99.90;;;;;;5034357;28;20252;-42
2023/01/28 16:34:26;;;;;;;12.33;8.03;;;1.80;99.90;;;;;;5035133;28;20181;-42
2023/01/28 16:37:00;;;;;;;10.73;7.03;;;1.80;99.90;;;;;;5031784;28;20189;-42
2023/01/28 16:39:26;;;;;;;10.87;7.87;;;1.80;99.90;;;;;;5032980;28;20280;-41